ME38 weather

Mars Hill Airport
Mars Hill, Maine, United States

Public forecast

Using degrees Fahrenheit for public forecast. Weather courtesy of forecast.io.

METAR (pilot weather report)

Closest report is Northern Maine Regional Airport at Presque Isle, 12.0 nm (22.1 km) NW. Retrieved 2019/07/23 22:56 UTC (22 minutes ago):

KPQI 232256Z AUTO 14005KT 10SM 22/12 A2982 RMK AO2 SLP121 T02170122 $

TAF (pilot weather forecast)

Closest forecast is Northern Maine Regional Airport at Presque Isle, 12.0 nm (22.1 km) NW. Retrieved 2019/07/23 18:36 UTC (5 hours ago):

TAF KPQI 231734Z 2318/2418 00000KT P6SM FEW250 FM240000 VRB03KT P6SM BKN090 FM241600 32008KT P6SM FEW050 SCT250